createdAt,value
2023-03-27T10:54:09.968Z,25.67
2023-03-27T10:55:10.000Z,25.77
2023-03-27T10:56:10.027Z,26.17
2023-03-27T10:57:10.143Z,27.08
2023-03-27T10:58:10.060Z,26.67
2023-03-27T10:59:10.056Z,26.77
2023-03-27T11:00:10.048Z,26.97
2023-03-27T11:01:10.108Z,26.96
2023-03-27T11:02:10.082Z,27.06
2023-03-27T11:03:10.092Z,26.86
2023-03-27T11:04:10.045Z,27.46
2023-03-27T11:05:10.030Z,27.36
2023-03-27T11:06:09.952Z,27.46
2023-03-27T11:07:09.906Z,27.46
2023-03-27T11:08:09.864Z,28.16
2023-03-27T11:09:09.818Z,28.66
2023-03-27T11:10:09.780Z,28.06
2023-03-27T11:11:09.738Z,27.96
2023-03-27T11:12:09.686Z,28.36
2023-03-27T11:13:09.679Z,27.85
2023-03-27T11:14:09.657Z,27.85
2023-03-27T11:15:09.612Z,28.05
2023-03-27T11:16:09.556Z,27.85
2023-03-27T11:17:09.569Z,27.94
2023-03-27T11:18:09.502Z,27.64
2023-03-27T11:19:09.439Z,27.73
2023-03-27T11:20:09.384Z,27.73
2023-03-27T11:21:09.342Z,27.73
2023-03-27T11:22:09.298Z,27.53
2023-03-27T11:23:09.252Z,27.44
2023-03-27T11:24:09.189Z,27.44
2023-03-27T11:25:09.162Z,27.64
2023-03-27T11:26:09.100Z,27.64
2023-03-27T11:27:09.949Z,27.83
2023-03-27T11:28:09.018Z,27.64
2023-03-27T11:29:08.955Z,27.83
2023-03-27T11:30:08.889Z,27.73
2023-03-27T11:31:12.482Z,27.53
2023-03-27T11:32:08.803Z,27.64
2023-03-27T11:33:08.772Z,33.64
2023-03-27T11:34:08.698Z,29.64
2023-03-27T11:35:08.633Z,28.44
2023-03-27T11:36:08.588Z,29.53
2023-03-27T11:37:08.545Z,28.64
2023-03-27T11:38:08.488Z,28.64
2023-03-27T11:39:08.445Z,28.22
2023-03-27T11:40:08.366Z,28.32
2023-03-27T11:41:08.291Z,28.52
2023-03-27T11:42:08.228Z,28.22
2023-03-27T11:43:08.181Z,28.32
2023-03-27T11:44:08.113Z,28.22
2023-03-27T11:45:08.081Z,27.72
2023-03-27T11:46:08.113Z,28.32
2023-03-27T11:47:07.969Z,28.82
2023-03-27T11:49:07.883Z,28.42
2023-03-27T11:50:07.795Z,28.22
2023-03-27T11:51:07.727Z,28.22
2023-03-27T11:52:07.663Z,28.22
2023-03-27T11:53:07.647Z,28.32
2023-03-27T11:54:07.568Z,29.72
2023-03-27T11:55:07.579Z,29.12
2023-03-27T11:56:07.507Z,29.22
2023-03-27T11:57:07.455Z,28.82
2023-03-27T11:58:07.402Z,28.52
2023-03-27T11:59:07.345Z,28.32
2023-03-27T12:00:07.270Z,28.41
2023-03-27T12:01:07.198Z,29.91
2023-03-27T12:02:07.180Z,28.61
2023-03-27T12:03:07.156Z,28.51
2023-03-27T12:04:07.162Z,28.51
2023-03-27T12:05:06.994Z,28.51
2023-03-27T12:06:06.932Z,28.51
2023-03-27T12:07:08.277Z,28.61
2023-03-27T12:08:06.813Z,28.41
2023-03-27T12:09:06.786Z,28.09
2023-03-27T12:10:06.731Z,28.30
2023-03-27T12:11:06.649Z,28.39
2023-03-27T12:12:06.571Z,28.30
2023-03-27T12:13:06.546Z,28.09
2023-03-27T12:14:14.059Z,28.30
2023-03-27T12:15:07.438Z,28.30
2023-03-27T12:16:06.394Z,28.19
2023-03-27T12:17:06.287Z,28.19
2023-03-27T12:18:06.326Z,28.39
2023-03-27T12:19:13.890Z,30.51
2023-03-27T12:20:07.088Z,28.81
2023-03-27T12:21:06.064Z,28.81
2023-03-27T12:22:20.717Z,28.61
2023-03-27T12:23:06.929Z,28.91
2023-03-27T12:24:05.898Z,28.81
2023-03-27T12:25:05.847Z,29.01
2023-03-27T12:26:05.775Z,29.01
2023-03-27T12:27:05.754Z,29.11
2023-03-27T12:28:05.641Z,29.71
2023-03-27T12:29:23.375Z,29.31
2023-03-27T12:30:06.519Z,29.21
2023-03-27T12:31:05.464Z,29.01
2023-03-27T12:32:05.523Z,28.81
2023-03-27T12:33:05.531Z,29.11
2023-03-27T12:34:05.309Z,29.00
2023-03-27T12:35:05.269Z,28.89
2023-03-27T12:36:05.232Z,28.89
2023-03-27T12:37:05.145Z,29.10
2023-03-27T12:38:05.121Z,28.89
2023-03-27T12:39:05.048Z,29.00
2023-03-27T12:40:04.999Z,29.00
2023-03-27T12:41:04.945Z,29.19
2023-03-27T12:42:04.875Z,29.30
2023-03-27T12:43:04.817Z,29.49
2023-03-27T12:44:04.738Z,28.89
2023-03-27T12:45:04.706Z,28.69
2023-03-27T12:46:04.867Z,28.39
2023-03-27T12:47:05.120Z,28.59
2023-03-27T12:48:04.526Z,28.39
2023-03-27T12:49:04.460Z,28.50
2023-03-27T12:50:04.381Z,28.39
2023-03-27T12:51:04.313Z,28.50
2023-03-27T12:52:04.324Z,28.39
2023-03-27T12:53:04.212Z,29.19
2023-03-27T12:54:04.167Z,28.69
2023-03-27T12:55:04.142Z,28.69
2023-03-27T12:56:04.073Z,28.50
2023-03-27T12:57:04.098Z,28.69
2023-03-27T12:58:04.111Z,28.59
2023-03-27T12:59:05.594Z,29.49
2023-03-27T13:00:03.799Z,28.59
2023-03-27T13:01:03.760Z,28.50
2023-03-27T13:02:03.779Z,28.39
2023-03-27T13:03:03.664Z,28.50
2023-03-27T13:04:03.693Z,28.39
2023-03-27T13:05:08.678Z,28.39
2023-03-27T13:06:04.409Z,28.39
2023-03-27T13:07:03.364Z,28.19
2023-03-27T13:08:03.334Z,28.39
2023-03-27T13:09:03.243Z,28.19
2023-03-27T13:10:03.247Z,28.19
2023-03-27T13:11:03.161Z,28.09
2023-03-27T13:12:03.086Z,29.00
2023-03-27T13:13:03.059Z,28.50
2023-03-27T13:14:03.031Z,28.39
2023-03-27T13:15:02.992Z,28.51
2023-03-27T13:16:02.964Z,29.01
2023-03-27T13:17:02.869Z,28.81
2023-03-27T13:18:02.832Z,28.71
2023-03-27T13:19:02.742Z,29.11
2023-03-27T13:20:02.686Z,28.91
2023-03-27T13:21:02.649Z,28.91
2023-03-27T13:22:02.581Z,28.81
2023-03-27T13:23:02.507Z,28.91
2023-03-27T13:24:02.485Z,29.11
2023-03-27T13:25:02.409Z,29.11
